sensor_id;sensor_type;location;lat;lon;timestamp;P1;durP1;ratioP1;P2;durP2;ratioP2
3815;SDS011;1923;48.154;11.536;2023-02-22T00:00:57;15.73;;;5.10;;
3815;SDS011;1923;48.154;11.536;2023-02-22T00:03:29;13.93;;;4.90;;
3815;SDS011;1923;48.154;11.536;2023-02-22T00:05:58;9.50;;;5.03;;
3815;SDS011;1923;48.154;11.536;2023-02-22T00:08:33;6.20;;;4.13;;
3815;SDS011;1923;48.154;11.536;2023-02-22T00:11:02;17.50;;;7.73;;
3815;SDS011;1923;48.154;11.536;2023-02-22T00:13:34;13.60;;;6.50;;
3815;SDS011;1923;48.154;11.536;2023-02-22T00:16:03;10.17;;;5.10;;
3815;SDS011;1923;48.154;11.536;2023-02-22T00:18:33;7.00;;;3.83;;
3815;SDS011;1923;48.154;11.536;2023-02-22T00:21:03;6.90;;;4.20;;
3815;SDS011;1923;48.154;11.536;2023-02-22T00:23:38;6.43;;;4.40;;
3815;SDS011;1923;48.154;11.536;2023-02-22T00:26:08;7.50;;;4.57;;
3815;SDS011;1923;48.154;11.536;2023-02-22T00:28:36;9.97;;;4.30;;
3815;SDS011;1923;48.154;11.536;2023-02-22T00:31:04;8.00;;;4.57;;
3815;SDS011;1923;48.154;11.536;2023-02-22T00:33:35;8.17;;;4.70;;
3815;SDS011;1923;48.154;11.536;2023-02-22T00:36:05;6.30;;;4.77;;
3815;SDS011;1923;48.154;11.536;2023-02-22T00:38:34;10.07;;;4.50;;
3815;SDS011;1923;48.154;11.536;2023-02-22T00:41:03;8.80;;;5.03;;
3815;SDS011;1923;48.154;11.536;2023-02-22T00:43:32;6.90;;;4.47;;
3815;SDS011;1923;48.154;11.536;2023-02-22T00:46:00;7.03;;;4.83;;
3815;SDS011;1923;48.154;11.536;2023-02-22T00:48:28;9.53;;;5.17;;
3815;SDS011;1923;48.154;11.536;2023-02-22T00:50:56;8.20;;;5.50;;
3815;SDS011;1923;48.154;11.536;2023-02-22T00:53:25;8.57;;;5.10;;
3815;SDS011;1923;48.154;11.536;2023-02-22T00:55:53;9.47;;;5.03;;
3815;SDS011;1923;48.154;11.536;2023-02-22T00:58:22;8.63;;;5.13;;
3815;SDS011;1923;48.154;11.536;2023-02-22T01:00:51;9.57;;;5.13;;
3815;SDS011;1923;48.154;11.536;2023-02-22T01:03:20;10.47;;;5.27;;
3815;SDS011;1923;48.154;11.536;2023-02-22T01:05:48;9.73;;;4.93;;
3815;SDS011;1923;48.154;11.536;2023-02-22T01:08:16;8.10;;;4.73;;
3815;SDS011;1923;48.154;11.536;2023-02-22T01:10:44;11.03;;;5.10;;
3815;SDS011;1923;48.154;11.536;2023-02-22T01:13:12;8.90;;;5.03;;
3815;SDS011;1923;48.154;11.536;2023-02-22T01:15:42;6.23;;;3.83;;
3815;SDS011;1923;48.154;11.536;2023-02-22T01:18:11;8.83;;;4.13;;
3815;SDS011;1923;48.154;11.536;2023-02-22T01:20:42;6.40;;;3.90;;
3815;SDS011;1923;48.154;11.536;2023-02-22T01:23:13;6.27;;;4.20;;
3815;SDS011;1923;48.154;11.536;2023-02-22T01:25:42;5.20;;;3.80;;
3815;SDS011;1923;48.154;11.536;2023-02-22T01:28:11;6.38;;;3.25;;
3815;SDS011;1923;48.154;11.536;2023-02-22T01:30:40;6.20;;;3.70;;
3815;SDS011;1923;48.154;11.536;2023-02-22T01:33:10;7.90;;;4.13;;
3815;SDS011;1923;48.154;11.536;2023-02-22T01:35:39;6.13;;;4.50;;
3815;SDS011;1923;48.154;11.536;2023-02-22T01:38:08;5.83;;;4.00;;
3815;SDS011;1923;48.154;11.536;2023-02-22T01:40:39;6.37;;;4.17;;
3815;SDS011;1923;48.154;11.536;2023-02-22T01:43:19;5.63;;;3.83;;
3815;SDS011;1923;48.154;11.536;2023-02-22T01:45:57;5.20;;;3.60;;
3815;SDS011;1923;48.154;11.536;2023-02-22T01:48:29;4.73;;;3.53;;
3815;SDS011;1923;48.154;11.536;2023-02-22T01:51:03;9.63;;;4.20;;
3815;SDS011;1923;48.154;11.536;2023-02-22T01:53:37;5.00;;;3.70;;
3815;SDS011;1923;48.154;11.536;2023-02-22T01:56:09;7.07;;;4.00;;
3815;SDS011;1923;48.154;11.536;2023-02-22T01:58:47;5.80;;;3.53;;
3815;SDS011;1923;48.154;11.536;2023-02-22T02:01:20;4.70;;;3.17;;
3815;SDS011;1923;48.154;11.536;2023-02-22T02:03:49;5.87;;;3.53;;
3815;SDS011;1923;48.154;11.536;2023-02-22T02:06:19;9.80;;;3.80;;
3815;SDS011;1923;48.154;11.536;2023-02-22T02:08:49;7.70;;;3.90;;
3815;SDS011;1923;48.154;11.536;2023-02-22T02:11:22;8.80;;;4.13;;
3815;SDS011;1923;48.154;11.536;2023-02-22T02:13:52;7.00;;;4.00;;
3815;SDS011;1923;48.154;11.536;2023-02-22T02:16:25;5.27;;;3.10;;
3815;SDS011;1923;48.154;11.536;2023-02-22T02:19:00;5.57;;;3.60;;
3815;SDS011;1923;48.154;11.536;2023-02-22T02:24:46;5.83;;;3.73;;
3815;SDS011;1923;48.154;11.536;2023-02-22T02:27:32;5.83;;;3.40;;
3815;SDS011;1923;48.154;11.536;2023-02-22T02:30:35;5.00;;;2.83;;
3815;SDS011;1923;48.154;11.536;2023-02-22T02:33:24;3.90;;;2.93;;
3815;SDS011;1923;48.154;11.536;2023-02-22T02:36:00;6.67;;;2.97;;
3815;SDS011;1923;48.154;11.536;2023-02-22T02:38:36;4.80;;;3.30;;
3815;SDS011;1923;48.154;11.536;2023-02-22T02:41:11;4.20;;;2.70;;
3815;SDS011;1923;48.154;11.536;2023-02-22T02:43:44;3.90;;;2.60;;
3815;SDS011;1923;48.154;11.536;2023-02-22T02:46:18;4.70;;;3.30;;
3815;SDS011;1923;48.154;11.536;2023-02-22T02:48:52;5.53;;;2.57;;
3815;SDS011;1923;48.154;11.536;2023-02-22T02:51:26;3.07;;;2.60;;
3815;SDS011;1923;48.154;11.536;2023-02-22T02:53:58;2.60;;;2.30;;
3815;SDS011;1923;48.154;11.536;2023-02-22T02:56:27;3.13;;;2.30;;
3815;SDS011;1923;48.154;11.536;2023-02-22T02:58:56;3.20;;;2.80;;
3815;SDS011;1923;48.154;11.536;2023-02-22T03:01:34;4.40;;;2.70;;
3815;SDS011;1923;48.154;11.536;2023-02-22T03:04:28;3.50;;;2.57;;
3815;SDS011;1923;48.154;11.536;2023-02-22T03:07:10;4.77;;;2.37;;
3815;SDS011;1923;48.154;11.536;2023-02-22T03:09:51;4.40;;;3.00;;
3815;SDS011;1923;48.154;11.536;2023-02-22T03:12:32;3.30;;;2.20;;
3815;SDS011;1923;48.154;11.536;2023-02-22T03:15:12;3.93;;;2.93;;
3815;SDS011;1923;48.154;11.536;2023-02-22T03:17:50;4.27;;;2.90;;
3815;SDS011;1923;48.154;11.536;2023-02-22T03:20:26;6.70;;;2.73;;
3815;SDS011;1923;48.154;11.536;2023-02-22T03:23:03;3.87;;;3.10;;
3815;SDS011;1923;48.154;11.536;2023-02-22T03:25:36;3.50;;;2.40;;
3815;SDS011;1923;48.154;11.536;2023-02-22T03:28:10;4.73;;;3.23;;
3815;SDS011;1923;48.154;11.536;2023-02-22T03:30:44;5.90;;;3.03;;
3815;SDS011;1923;48.154;11.536;2023-02-22T03:33:16;3.30;;;2.60;;
3815;SDS011;1923;48.154;11.536;2023-02-22T03:35:50;5.80;;;2.53;;
3815;SDS011;1923;48.154;11.536;2023-02-22T03:38:23;3.50;;;2.63;;
3815;SDS011;1923;48.154;11.536;2023-02-22T03:40:55;5.70;;;2.60;;
3815;SDS011;1923;48.154;11.536;2023-02-22T03:43:28;2.97;;;2.60;;
3815;SDS011;1923;48.154;11.536;2023-02-22T03:46:00;6.43;;;2.93;;
3815;SDS011;1923;48.154;11.536;2023-02-22T03:48:31;4.13;;;2.77;;
3815;SDS011;1923;48.154;11.536;2023-02-22T03:51:05;5.00;;;2.90;;
3815;SDS011;1923;48.154;11.536;2023-02-22T03:53:33;3.33;;;2.70;;
3815;SDS011;1923;48.154;11.536;2023-02-22T03:56:03;4.80;;;3.10;;
3815;SDS011;1923;48.154;11.536;2023-02-22T03:58:33;6.80;;;2.70;;
3815;SDS011;1923;48.154;11.536;2023-02-22T04:01:04;8.50;;;2.87;;
3815;SDS011;1923;48.154;11.536;2023-02-22T04:03:32;4.70;;;2.50;;
3815;SDS011;1923;48.154;11.536;2023-02-22T04:06:00;3.03;;;2.60;;
3815;SDS011;1923;48.154;11.536;2023-02-22T04:08:30;4.00;;;2.43;;
3815;SDS011;1923;48.154;11.536;2023-02-22T04:10:58;7.63;;;2.80;;
3815;SDS011;1923;48.154;11.536;2023-02-22T04:13:26;4.43;;;2.83;;
3815;SDS011;1923;48.154;11.536;2023-02-22T04:15:55;4.67;;;2.60;;
3815;SDS011;1923;48.154;11.536;2023-02-22T04:18:23;2.87;;;2.60;;
3815;SDS011;1923;48.154;11.536;2023-02-22T04:20:51;3.50;;;2.23;;
3815;SDS011;1923;48.154;11.536;2023-02-22T04:23:19;3.33;;;2.30;;
3815;SDS011;1923;48.154;11.536;2023-02-22T04:25:48;3.80;;;2.53;;
3815;SDS011;1923;48.154;11.536;2023-02-22T04:28:16;3.37;;;2.23;;
3815;SDS011;1923;48.154;11.536;2023-02-22T04:30:44;4.27;;;2.60;;
3815;SDS011;1923;48.154;11.536;2023-02-22T04:33:13;4.00;;;2.57;;
3815;SDS011;1923;48.154;11.536;2023-02-22T04:35:41;4.07;;;2.90;;
3815;SDS011;1923;48.154;11.536;2023-02-22T04:38:09;5.03;;;2.50;;
3815;SDS011;1923;48.154;11.536;2023-02-22T04:40:38;6.57;;;3.43;;
3815;SDS011;1923;48.154;11.536;2023-02-22T04:43:08;12.87;;;3.33;;
3815;SDS011;1923;48.154;11.536;2023-02-22T04:45:36;5.27;;;2.70;;
3815;SDS011;1923;48.154;11.536;2023-02-22T04:48:04;4.30;;;3.30;;
3815;SDS011;1923;48.154;11.536;2023-02-22T04:50:32;9.63;;;4.00;;
3815;SDS011;1923;48.154;11.536;2023-02-22T04:53:00;6.27;;;3.60;;
3815;SDS011;1923;48.154;11.536;2023-02-22T04:55:28;6.57;;;3.50;;
3815;SDS011;1923;48.154;11.536;2023-02-22T04:57:56;5.07;;;3.10;;
3815;SDS011;1923;48.154;11.536;2023-02-22T05:00:25;6.43;;;3.70;;
3815;SDS011;1923;48.154;11.536;2023-02-22T05:02:54;4.93;;;3.20;;
3815;SDS011;1923;48.154;11.536;2023-02-22T05:05:22;6.20;;;3.20;;
3815;SDS011;1923;48.154;11.536;2023-02-22T05:07:50;5.23;;;3.10;;
3815;SDS011;1923;48.154;11.536;2023-02-22T05:10:19;5.33;;;3.53;;
3815;SDS011;1923;48.154;11.536;2023-02-22T05:12:47;4.67;;;3.50;;
3815;SDS011;1923;48.154;11.536;2023-02-22T05:15:15;4.80;;;2.80;;
3815;SDS011;1923;48.154;11.536;2023-02-22T05:17:46;4.60;;;2.87;;
3815;SDS011;1923;48.154;11.536;2023-02-22T05:20:20;3.93;;;2.77;;
3815;SDS011;1923;48.154;11.536;2023-02-22T05:22:50;4.67;;;3.10;;
3815;SDS011;1923;48.154;11.536;2023-02-22T05:25:18;5.10;;;3.80;;
3815;SDS011;1923;48.154;11.536;2023-02-22T05:27:50;4.80;;;3.47;;
3815;SDS011;1923;48.154;11.536;2023-02-22T05:30:19;5.83;;;3.57;;
3815;SDS011;1923;48.154;11.536;2023-02-22T05:32:51;6.30;;;3.20;;
3815;SDS011;1923;48.154;11.536;2023-02-22T05:35:20;4.20;;;3.00;;
3815;SDS011;1923;48.154;11.536;2023-02-22T05:37:48;6.97;;;3.93;;
3815;SDS011;1923;48.154;11.536;2023-02-22T05:40:17;4.10;;;2.97;;
3815;SDS011;1923;48.154;11.536;2023-02-22T05:42:46;4.33;;;3.00;;
3815;SDS011;1923;48.154;11.536;2023-02-22T05:45:15;6.80;;;3.70;;
3815;SDS011;1923;48.154;11.536;2023-02-22T05:47:44;5.30;;;3.50;;
3815;SDS011;1923;48.154;11.536;2023-02-22T05:50:14;7.63;;;3.80;;
3815;SDS011;1923;48.154;11.536;2023-02-22T05:52:42;6.40;;;3.20;;
3815;SDS011;1923;48.154;11.536;2023-02-22T05:55:12;2.93;;;2.50;;
3815;SDS011;1923;48.154;11.536;2023-02-22T05:57:41;7.17;;;3.20;;
3815;SDS011;1923;48.154;11.536;2023-02-22T06:00:10;5.47;;;3.93;;
3815;SDS011;1923;48.154;11.536;2023-02-22T06:02:43;3.33;;;2.60;;
3815;SDS011;1923;48.154;11.536;2023-02-22T06:05:11;5.00;;;3.07;;
3815;SDS011;1923;48.154;11.536;2023-02-22T06:07:41;6.03;;;2.70;;
3815;SDS011;1923;48.154;11.536;2023-02-22T06:10:09;7.17;;;2.87;;
3815;SDS011;1923;48.154;11.536;2023-02-22T06:12:39;3.33;;;3.10;;
3815;SDS011;1923;48.154;11.536;2023-02-22T06:15:07;5.40;;;2.90;;
3815;SDS011;1923;48.154;11.536;2023-02-22T06:17:35;7.03;;;3.30;;
3815;SDS011;1923;48.154;11.536;2023-02-22T06:20:05;4.03;;;2.80;;
3815;SDS011;1923;48.154;11.536;2023-02-22T06:22:33;3.97;;;3.07;;
3815;SDS011;1923;48.154;11.536;2023-02-22T06:25:03;5.27;;;3.30;;
3815;SDS011;1923;48.154;11.536;2023-02-22T06:27:32;4.43;;;3.37;;
3815;SDS011;1923;48.154;11.536;2023-02-22T06:30:00;6.33;;;3.10;;
3815;SDS011;1923;48.154;11.536;2023-02-22T06:32:28;4.30;;;3.33;;
3815;SDS011;1923;48.154;11.536;2023-02-22T06:34:57;3.47;;;2.77;;
3815;SDS011;1923;48.154;11.536;2023-02-22T06:37:25;5.63;;;2.90;;
3815;SDS011;1923;48.154;11.536;2023-02-22T06:39:53;5.20;;;3.20;;
3815;SDS011;1923;48.154;11.536;2023-02-22T06:42:27;3.80;;;2.93;;
3815;SDS011;1923;48.154;11.536;2023-02-22T06:44:55;4.50;;;2.90;;
3815;SDS011;1923;48.154;11.536;2023-02-22T06:47:23;3.90;;;2.90;;
3815;SDS011;1923;48.154;11.536;2023-02-22T06:49:51;4.13;;;2.63;;
3815;SDS011;1923;48.154;11.536;2023-02-22T06:52:20;3.43;;;3.10;;
3815;SDS011;1923;48.154;11.536;2023-02-22T06:54:48;6.27;;;3.37;;
3815;SDS011;1923;48.154;11.536;2023-02-22T06:57:16;3.90;;;3.00;;
3815;SDS011;1923;48.154;11.536;2023-02-22T06:59:46;4.67;;;2.57;;
3815;SDS011;1923;48.154;11.536;2023-02-22T07:02:14;3.80;;;2.83;;
3815;SDS011;1923;48.154;11.536;2023-02-22T07:04:43;4.90;;;3.00;;
3815;SDS011;1923;48.154;11.536;2023-02-22T07:07:11;3.87;;;2.80;;
3815;SDS011;1923;48.154;11.536;2023-02-22T07:09:39;3.67;;;2.80;;
3815;SDS011;1923;48.154;11.536;2023-02-22T07:12:10;8.67;;;3.63;;
3815;SDS011;1923;48.154;11.536;2023-02-22T07:14:38;4.63;;;3.10;;
3815;SDS011;1923;48.154;11.536;2023-02-22T07:17:08;6.50;;;3.40;;
3815;SDS011;1923;48.154;11.536;2023-02-22T07:19:36;5.93;;;3.03;;
3815;SDS011;1923;48.154;11.536;2023-02-22T07:22:04;4.00;;;2.37;;
3815;SDS011;1923;48.154;11.536;2023-02-22T07:24:32;3.80;;;2.97;;
3815;SDS011;1923;48.154;11.536;2023-02-22T07:27:01;2.80;;;2.43;;
3815;SDS011;1923;48.154;11.536;2023-02-22T07:29:29;4.40;;;3.00;;
3815;SDS011;1923;48.154;11.536;2023-02-22T07:31:58;3.50;;;2.50;;
3815;SDS011;1923;48.154;11.536;2023-02-22T07:34:28;4.07;;;2.73;;
3815;SDS011;1923;48.154;11.536;2023-02-22T07:36:56;4.73;;;2.50;;
3815;SDS011;1923;48.154;11.536;2023-02-22T07:39:24;6.20;;;2.60;;
3815;SDS011;1923;48.154;11.536;2023-02-22T07:41:52;7.47;;;2.33;;
3815;SDS011;1923;48.154;11.536;2023-02-22T07:44:20;4.47;;;2.63;;
3815;SDS011;1923;48.154;11.536;2023-02-22T07:46:48;5.60;;;3.27;;
3815;SDS011;1923;48.154;11.536;2023-02-22T07:49:16;4.40;;;3.17;;
3815;SDS011;1923;48.154;11.536;2023-02-22T07:51:46;6.70;;;3.30;;
3815;SDS011;1923;48.154;11.536;2023-02-22T07:54:14;5.77;;;2.80;;
3815;SDS011;1923;48.154;11.536;2023-02-22T07:56:45;4.13;;;2.30;;
3815;SDS011;1923;48.154;11.536;2023-02-22T07:59:14;3.90;;;2.43;;
3815;SDS011;1923;48.154;11.536;2023-02-22T08:01:42;4.10;;;2.40;;
3815;SDS011;1923;48.154;11.536;2023-02-22T08:04:10;4.20;;;2.73;;
3815;SDS011;1923;48.154;11.536;2023-02-22T08:06:38;3.30;;;2.30;;
3815;SDS011;1923;48.154;11.536;2023-02-22T08:09:08;4.50;;;2.63;;
3815;SDS011;1923;48.154;11.536;2023-02-22T08:11:36;4.20;;;2.23;;
3815;SDS011;1923;48.154;11.536;2023-02-22T08:14:04;2.87;;;1.80;;
3815;SDS011;1923;48.154;11.536;2023-02-22T08:16:32;3.47;;;2.43;;
3815;SDS011;1923;48.154;11.536;2023-02-22T08:19:00;8.60;;;2.60;;
3815;SDS011;1923;48.154;11.536;2023-02-22T08:21:28;4.40;;;2.20;;
3815;SDS011;1923;48.154;11.536;2023-02-22T08:23:56;6.30;;;2.77;;
3815;SDS011;1923;48.154;11.536;2023-02-22T08:26:26;6.67;;;2.47;;
3815;SDS011;1923;48.154;11.536;2023-02-22T08:28:54;14.83;;;3.33;;
3815;SDS011;1923;48.154;11.536;2023-02-22T08:31:22;6.07;;;2.60;;
3815;SDS011;1923;48.154;11.536;2023-02-22T08:33:50;4.33;;;2.77;;
3815;SDS011;1923;48.154;11.536;2023-02-22T08:36:18;5.00;;;2.40;;
3815;SDS011;1923;48.154;11.536;2023-02-22T08:38:46;4.07;;;2.37;;
3815;SDS011;1923;48.154;11.536;2023-02-22T08:41:14;3.80;;;2.13;;
3815;SDS011;1923;48.154;11.536;2023-02-22T08:43:44;5.43;;;3.20;;
3815;SDS011;1923;48.154;11.536;2023-02-22T08:46:12;3.17;;;1.80;;
3815;SDS011;1923;48.154;11.536;2023-02-22T08:48:48;6.50;;;2.90;;
3815;SDS011;1923;48.154;11.536;2023-02-22T08:51:16;3.80;;;2.57;;
3815;SDS011;1923;48.154;11.536;2023-02-22T08:53:45;3.23;;;1.97;;
3815;SDS011;1923;48.154;11.536;2023-02-22T08:56:13;5.33;;;2.17;;
3815;SDS011;1923;48.154;11.536;2023-02-22T08:58:42;5.50;;;2.83;;
3815;SDS011;1923;48.154;11.536;2023-02-22T09:01:12;4.63;;;2.00;;
3815;SDS011;1923;48.154;11.536;2023-02-22T09:03:47;4.43;;;2.10;;
3815;SDS011;1923;48.154;11.536;2023-02-22T09:06:15;7.53;;;2.73;;
3815;SDS011;1923;48.154;11.536;2023-02-22T09:08:43;2.87;;;1.70;;
3815;SDS011;1923;48.154;11.536;2023-02-22T09:11:11;3.53;;;1.80;;
3815;SDS011;1923;48.154;11.536;2023-02-22T09:13:40;4.35;;;1.80;;
3815;SDS011;1923;48.154;11.536;2023-02-22T09:16:09;4.63;;;2.00;;
3815;SDS011;1923;48.154;11.536;2023-02-22T09:18:38;4.40;;;2.33;;
3815;SDS011;1923;48.154;11.536;2023-02-22T09:21:10;3.63;;;1.60;;
3815;SDS011;1923;48.154;11.536;2023-02-22T09:23:39;5.17;;;2.00;;
3815;SDS011;1923;48.154;11.536;2023-02-22T09:26:07;3.03;;;1.40;;
3815;SDS011;1923;48.154;11.536;2023-02-22T09:28:35;2.87;;;1.70;;
3815;SDS011;1923;48.154;11.536;2023-02-22T09:31:04;4.50;;;1.50;;
3815;SDS011;1923;48.154;11.536;2023-02-22T09:33:33;3.00;;;1.63;;
3815;SDS011;1923;48.154;11.536;2023-02-22T09:36:01;1.73;;;1.20;;
3815;SDS011;1923;48.154;11.536;2023-02-22T09:38:29;3.37;;;1.67;;
3815;SDS011;1923;48.154;11.536;2023-02-22T09:41:01;3.00;;;1.50;;
3815;SDS011;1923;48.154;11.536;2023-02-22T09:43:38;3.08;;;1.50;;
3815;SDS011;1923;48.154;11.536;2023-02-22T09:46:14;2.70;;;1.20;;
3815;SDS011;1923;48.154;11.536;2023-02-22T09:48:59;1.33;;;0.97;;
3815;SDS011;1923;48.154;11.536;2023-02-22T09:51:32;3.95;;;1.15;;
3815;SDS011;1923;48.154;11.536;2023-02-22T09:54:09;3.37;;;1.43;;
3815;SDS011;1923;48.154;11.536;2023-02-22T09:56:44;1.50;;;1.07;;
3815;SDS011;1923;48.154;11.536;2023-02-22T09:59:16;3.17;;;1.27;;
3815;SDS011;1923;48.154;11.536;2023-02-22T10:01:52;5.43;;;1.40;;
3815;SDS011;1923;48.154;11.536;2023-02-22T10:04:30;1.73;;;0.97;;
3815;SDS011;1923;48.154;11.536;2023-02-22T10:07:11;2.33;;;1.30;;
3815;SDS011;1923;48.154;11.536;2023-02-22T10:09:45;2.10;;;1.30;;
3815;SDS011;1923;48.154;11.536;2023-02-22T10:12:17;1.20;;;0.87;;
3815;SDS011;1923;48.154;11.536;2023-02-22T10:17:53;3.20;;;1.50;;
3815;SDS011;1923;48.154;11.536;2023-02-22T10:20:34;2.43;;;0.90;;
3815;SDS011;1923;48.154;11.536;2023-02-22T10:23:15;3.77;;;1.20;;
3815;SDS011;1923;48.154;11.536;2023-02-22T10:25:52;2.80;;;1.40;;
3815;SDS011;1923;48.154;11.536;2023-02-22T10:28:27;3.73;;;1.20;;
3815;SDS011;1923;48.154;11.536;2023-02-22T10:31:00;3.43;;;1.47;;
3815;SDS011;1923;48.154;11.536;2023-02-22T10:33:32;2.50;;;1.40;;
3815;SDS011;1923;48.154;11.536;2023-02-22T10:36:09;1.60;;;1.00;;
3815;SDS011;1923;48.154;11.536;2023-02-22T10:38:47;2.73;;;1.07;;
3815;SDS011;1923;48.154;11.536;2023-02-22T10:41:22;1.17;;;1.07;;
3815;SDS011;1923;48.154;11.536;2023-02-22T10:43:54;3.80;;;1.03;;
3815;SDS011;1923;48.154;11.536;2023-02-22T10:46:23;3.67;;;1.20;;
3815;SDS011;1923;48.154;11.536;2023-02-22T10:48:55;4.30;;;2.23;;
3815;SDS011;1923;48.154;11.536;2023-02-22T10:51:30;1.70;;;1.40;;
3815;SDS011;1923;48.154;11.536;2023-02-22T10:54:01;2.43;;;1.30;;
3815;SDS011;1923;48.154;11.536;2023-02-22T10:56:46;2.23;;;1.10;;
3815;SDS011;1923;48.154;11.536;2023-02-22T10:59:25;1.97;;;1.00;;
3815;SDS011;1923;48.154;11.536;2023-02-22T11:01:54;1.47;;;1.00;;
3815;SDS011;1923;48.154;11.536;2023-02-22T11:04:23;3.70;;;1.20;;
3815;SDS011;1923;48.154;11.536;2023-02-22T11:07:07;3.37;;;1.30;;
3815;SDS011;1923;48.154;11.536;2023-02-22T11:09:48;3.07;;;1.10;;
3815;SDS011;1923;48.154;11.536;2023-02-22T11:12:19;6.50;;;1.57;;
3815;SDS011;1923;48.154;11.536;2023-02-22T11:14:53;1.00;;;0.90;;
3815;SDS011;1923;48.154;11.536;2023-02-22T11:17:29;2.20;;;1.37;;
3815;SDS011;1923;48.154;11.536;2023-02-22T11:19:58;2.47;;;1.40;;
3815;SDS011;1923;48.154;11.536;2023-02-22T11:22:29;2.37;;;1.13;;
3815;SDS011;1923;48.154;11.536;2023-02-22T11:25:04;2.07;;;1.20;;
3815;SDS011;1923;48.154;11.536;2023-02-22T11:27:34;1.63;;;1.23;;
3815;SDS011;1923;48.154;11.536;2023-02-22T11:32:53;1.63;;;0.90;;
3815;SDS011;1923;48.154;11.536;2023-02-22T11:35:32;1.65;;;0.80;;
3815;SDS011;1923;48.154;11.536;2023-02-22T11:38:13;2.37;;;1.17;;
3815;SDS011;1923;48.154;11.536;2023-02-22T11:40:48;1.77;;;1.10;;
3815;SDS011;1923;48.154;11.536;2023-02-22T11:43:40;1.70;;;1.07;;
3815;SDS011;1923;48.154;11.536;2023-02-22T11:46:10;2.38;;;1.10;;
3815;SDS011;1923;48.154;11.536;2023-02-22T11:48:41;2.75;;;0.90;;
3815;SDS011;1923;48.154;11.536;2023-02-22T11:51:23;2.90;;;1.00;;
3815;SDS011;1923;48.154;11.536;2023-02-22T11:54:14;1.67;;;0.90;;
3815;SDS011;1923;48.154;11.536;2023-02-22T11:56:56;1.90;;;0.80;;
3815;SDS011;1923;48.154;11.536;2023-02-22T11:59:43;1.37;;;0.80;;
3815;SDS011;1923;48.154;11.536;2023-02-22T12:02:24;1.90;;;1.03;;
3815;SDS011;1923;48.154;11.536;2023-02-22T12:05:27;1.52;;;1.00;;
3815;SDS011;1923;48.154;11.536;2023-02-22T12:08:11;1.30;;;1.00;;
3815;SDS011;1923;48.154;11.536;2023-02-22T12:10:51;2.80;;;0.87;;
3815;SDS011;1923;48.154;11.536;2023-02-22T12:13:36;1.83;;;1.00;;
3815;SDS011;1923;48.154;11.536;2023-02-22T12:16:17;2.00;;;0.80;;
3815;SDS011;1923;48.154;11.536;2023-02-22T12:18:57;1.20;;;0.87;;
3815;SDS011;1923;48.154;11.536;2023-02-22T12:21:35;1.33;;;0.80;;
3815;SDS011;1923;48.154;11.536;2023-02-22T12:24:08;1.17;;;0.70;;
3815;SDS011;1923;48.154;11.536;2023-02-22T12:26:44;1.30;;;0.80;;
3815;SDS011;1923;48.154;11.536;2023-02-22T12:29:17;3.42;;;1.00;;
3815;SDS011;1923;48.154;11.536;2023-02-22T12:31:54;1.03;;;0.60;;
3815;SDS011;1923;48.154;11.536;2023-02-22T12:34:28;1.40;;;0.60;;
3815;SDS011;1923;48.154;11.536;2023-02-22T12:37:03;0.70;;;0.50;;
3815;SDS011;1923;48.154;11.536;2023-02-22T12:39:41;2.50;;;0.70;;
3815;SDS011;1923;48.154;11.536;2023-02-22T12:42:23;1.53;;;0.80;;
3815;SDS011;1923;48.154;11.536;2023-02-22T12:44:57;1.20;;;0.73;;
3815;SDS011;1923;48.154;11.536;2023-02-22T12:47:35;6.47;;;1.20;;
3815;SDS011;1923;48.154;11.536;2023-02-22T12:50:09;2.47;;;0.70;;
3815;SDS011;1923;48.154;11.536;2023-02-22T12:52:48;1.45;;;0.65;;
3815;SDS011;1923;48.154;11.536;2023-02-22T12:55:20;1.53;;;1.10;;
3815;SDS011;1923;48.154;11.536;2023-02-22T12:57:54;1.57;;;0.90;;
3815;SDS011;1923;48.154;11.536;2023-02-22T13:00:29;1.00;;;0.70;;
3815;SDS011;1923;48.154;11.536;2023-02-22T13:03:04;1.30;;;0.50;;
3815;SDS011;1923;48.154;11.536;2023-02-22T13:05:46;1.00;;;0.70;;
3815;SDS011;1923;48.154;11.536;2023-02-22T13:08:20;1.20;;;0.70;;
3815;SDS011;1923;48.154;11.536;2023-02-22T13:10:59;3.57;;;0.90;;
3815;SDS011;1923;48.154;11.536;2023-02-22T13:13:36;0.90;;;0.50;;
3815;SDS011;1923;48.154;11.536;2023-02-22T13:16:21;1.20;;;0.57;;
3815;SDS011;1923;48.154;11.536;2023-02-22T13:19:00;1.53;;;0.80;;
3815;SDS011;1923;48.154;11.536;2023-02-22T13:21:35;2.40;;;0.90;;
3815;SDS011;1923;48.154;11.536;2023-02-22T13:24:15;1.03;;;0.87;;
3815;SDS011;1923;48.154;11.536;2023-02-22T13:26:48;1.20;;;0.70;;
3815;SDS011;1923;48.154;11.536;2023-02-22T13:29:21;1.43;;;0.63;;
3815;SDS011;1923;48.154;11.536;2023-02-22T13:32:02;1.53;;;0.50;;
3815;SDS011;1923;48.154;11.536;2023-02-22T13:34:43;0.70;;;0.43;;
3815;SDS011;1923;48.154;11.536;2023-02-22T13:37:48;0.80;;;0.63;;
3815;SDS011;1923;48.154;11.536;2023-02-22T13:40:37;2.23;;;0.70;;
3815;SDS011;1923;48.154;11.536;2023-02-22T13:43:35;0.90;;;0.60;;
3815;SDS011;1923;48.154;11.536;2023-02-22T13:46:32;0.90;;;0.50;;
3815;SDS011;1923;48.154;11.536;2023-02-22T13:49:19;0.80;;;0.40;;
3815;SDS011;1923;48.154;11.536;2023-02-22T13:51:55;1.67;;;0.70;;
3815;SDS011;1923;48.154;11.536;2023-02-22T13:54:25;1.83;;;0.70;;
3815;SDS011;1923;48.154;11.536;2023-02-22T13:57:00;0.70;;;0.47;;
3815;SDS011;1923;48.154;11.536;2023-02-22T13:59:30;1.20;;;0.57;;
3815;SDS011;1923;48.154;11.536;2023-02-22T14:02:03;0.77;;;0.50;;
3815;SDS011;1923;48.154;11.536;2023-02-22T14:04:38;2.90;;;0.60;;
3815;SDS011;1923;48.154;11.536;2023-02-22T14:10:36;2.07;;;0.50;;
3815;SDS011;1923;48.154;11.536;2023-02-22T14:13:13;1.40;;;0.30;;
3815;SDS011;1923;48.154;11.536;2023-02-22T14:19:00;1.57;;;0.50;;
3815;SDS011;1923;48.154;11.536;2023-02-22T14:21:32;0.70;;;0.50;;
3815;SDS011;1923;48.154;11.536;2023-02-22T14:24:05;0.80;;;0.50;;
3815;SDS011;1923;48.154;11.536;2023-02-22T14:26:35;0.73;;;0.50;;
3815;SDS011;1923;48.154;11.536;2023-02-22T14:29:13;0.80;;;0.63;;
3815;SDS011;1923;48.154;11.536;2023-02-22T14:31:58;0.80;;;0.47;;
3815;SDS011;1923;48.154;11.536;2023-02-22T14:34:40;1.10;;;0.52;;
3815;SDS011;1923;48.154;11.536;2023-02-22T14:37:16;0.70;;;0.40;;
3815;SDS011;1923;48.154;11.536;2023-02-22T14:39:47;1.20;;;0.40;;
3815;SDS011;1923;48.154;11.536;2023-02-22T14:42:20;2.95;;;1.70;;
3815;SDS011;1923;48.154;11.536;2023-02-22T14:44:56;1.75;;;1.20;;
3815;SDS011;1923;48.154;11.536;2023-02-22T14:47:27;3.95;;;1.50;;
3815;SDS011;1923;48.154;11.536;2023-02-22T14:50:03;2.50;;;1.70;;
3815;SDS011;1923;48.154;11.536;2023-02-22T14:52:37;3.30;;;2.27;;
3815;SDS011;1923;48.154;11.536;2023-02-22T14:55:15;3.65;;;2.28;;
3815;SDS011;1923;48.154;11.536;2023-02-22T14:57:57;8.20;;;2.70;;
3815;SDS011;1923;48.154;11.536;2023-02-22T15:00:36;4.80;;;2.10;;
3815;SDS011;1923;48.154;11.536;2023-02-22T15:03:10;4.70;;;2.10;;
3815;SDS011;1923;48.154;11.536;2023-02-22T15:05:46;3.27;;;2.10;;
3815;SDS011;1923;48.154;11.536;2023-02-22T15:08:15;5.90;;;2.47;;
3815;SDS011;1923;48.154;11.536;2023-02-22T15:10:52;6.03;;;2.73;;
3815;SDS011;1923;48.154;11.536;2023-02-22T15:13:22;5.20;;;2.63;;
3815;SDS011;1923;48.154;11.536;2023-02-22T15:15:53;4.13;;;2.47;;
3815;SDS011;1923;48.154;11.536;2023-02-22T15:18:27;3.97;;;2.20;;
3815;SDS011;1923;48.154;11.536;2023-02-22T15:21:03;8.67;;;2.20;;
3815;SDS011;1923;48.154;11.536;2023-02-22T15:23:41;7.07;;;3.23;;
3815;SDS011;1923;48.154;11.536;2023-02-22T15:26:14;4.45;;;2.10;;
3815;SDS011;1923;48.154;11.536;2023-02-22T15:28:44;5.50;;;2.40;;
3815;SDS011;1923;48.154;11.536;2023-02-22T15:31:14;3.20;;;2.20;;
3815;SDS011;1923;48.154;11.536;2023-02-22T15:33:50;4.63;;;1.90;;
3815;SDS011;1923;48.154;11.536;2023-02-22T15:36:24;3.78;;;2.40;;
3815;SDS011;1923;48.154;11.536;2023-02-22T15:38:53;3.23;;;2.13;;
3815;SDS011;1923;48.154;11.536;2023-02-22T15:41:26;2.40;;;1.97;;
3815;SDS011;1923;48.154;11.536;2023-02-22T15:44:00;3.88;;;1.80;;
3815;SDS011;1923;48.154;11.536;2023-02-22T15:46:47;4.23;;;2.27;;
3815;SDS011;1923;48.154;11.536;2023-02-22T15:49:17;7.10;;;2.17;;